createdAt,value
2022-09-18T00:01:18.435Z,12.00
2022-09-18T00:03:46.369Z,12.00
2022-09-18T00:06:24.779Z,12.00
2022-09-18T00:08:53.259Z,12.00
2022-09-18T00:11:23.260Z,12.00
2022-09-18T00:13:50.238Z,12.00
2022-09-18T00:16:19.204Z,12.00
2022-09-18T00:18:46.513Z,12.00
2022-09-18T00:21:24.133Z,12.00
2022-09-18T00:23:54.252Z,12.00
2022-09-18T00:26:21.180Z,12.00
2022-09-18T00:28:47.901Z,12.00
2022-09-18T00:31:25.542Z,12.10
2022-09-18T00:33:53.698Z,12.10
2022-09-18T00:36:20.861Z,12.10
2022-09-18T00:38:47.826Z,12.10
2022-09-18T00:41:26.604Z,12.10
2022-09-18T00:43:57.004Z,12.20
2022-09-18T00:46:33.650Z,12.20
2022-09-18T00:49:22.661Z,12.20
2022-09-18T00:51:53.829Z,12.20
2022-09-18T00:54:29.005Z,12.30
2022-09-18T00:57:00.403Z,12.20
2022-09-18T00:59:30.140Z,12.10
2022-09-18T01:01:58.354Z,12.10
2022-09-18T01:04:26.197Z,12.20
2022-09-18T01:07:10.845Z,12.20
2022-09-18T01:09:48.253Z,12.10
2022-09-18T01:12:26.852Z,12.10
2022-09-18T01:14:56.336Z,12.00
2022-09-18T01:17:50.794Z,12.00
2022-09-18T01:20:35.613Z,11.90
2022-09-18T01:23:18.308Z,11.80
2022-09-18T01:26:06.851Z,11.80
2022-09-18T01:28:48.463Z,11.80
2022-09-18T01:31:32.528Z,11.80
2022-09-18T01:34:07.152Z,11.90
2022-09-18T01:36:37.680Z,11.80
2022-09-18T01:39:20.500Z,11.90
2022-09-18T01:41:51.382Z,11.90
2022-09-18T01:44:23.235Z,11.90
2022-09-18T01:46:51.139Z,12.00
2022-09-18T01:49:23.505Z,12.00
2022-09-18T01:52:12.951Z,12.10
2022-09-18T01:54:44.445Z,12.00
2022-09-18T01:57:17.650Z,12.10
2022-09-18T01:59:56.080Z,12.10
2022-09-18T02:02:42.914Z,12.00
2022-09-18T02:05:14.710Z,12.00
2022-09-18T02:08:21.971Z,12.00
2022-09-18T02:10:56.096Z,12.00
2022-09-18T02:13:34.998Z,12.10
2022-09-18T02:16:05.374Z,12.00
2022-09-18T02:18:37.241Z,12.00
2022-09-18T02:21:11.745Z,11.90
2022-09-18T02:23:41.326Z,11.90
2022-09-18T02:26:09.385Z,11.90
2022-09-18T02:28:37.430Z,11.90
2022-09-18T02:31:04.291Z,12.00
2022-09-18T02:33:33.583Z,12.00
2022-09-18T02:36:18.881Z,12.00
2022-09-18T02:38:48.544Z,12.10
2022-09-18T02:41:42.548Z,12.10
2022-09-18T02:44:12.039Z,12.10
2022-09-18T02:46:41.537Z,11.90
2022-09-18T02:49:23.248Z,11.90
2022-09-18T02:52:01.056Z,11.90
2022-09-18T02:54:38.780Z,11.90
2022-09-18T02:57:15.647Z,11.80
2022-09-18T02:59:47.736Z,11.80
2022-09-18T03:02:14.608Z,11.80
2022-09-18T03:04:41.532Z,11.80
2022-09-18T03:07:08.452Z,11.80
2022-09-18T03:09:35.226Z,11.80
2022-09-18T03:12:02.824Z,11.80
2022-09-18T03:14:29.578Z,11.80
2022-09-18T03:16:56.298Z,11.80
2022-09-18T03:19:23.146Z,11.80
2022-09-18T03:21:51.182Z,11.80
2022-09-18T03:24:17.868Z,11.80
2022-09-18T03:26:44.601Z,11.80
2022-09-18T03:29:12.492Z,11.90
2022-09-18T03:31:39.370Z,11.90
2022-09-18T03:34:06.759Z,11.70
2022-09-18T03:36:33.604Z,11.70
2022-09-18T03:39:00.310Z,11.70
2022-09-18T03:41:27.077Z,11.60
2022-09-18T03:43:54.104Z,11.70
2022-09-18T03:46:24.178Z,11.60
2022-09-18T03:48:51.540Z,11.60
2022-09-18T03:51:19.969Z,11.60
2022-09-18T03:53:47.681Z,11.50
2022-09-18T03:56:15.139Z,11.50
2022-09-18T03:58:42.089Z,11.50
2022-09-18T04:01:09.447Z,11.50
2022-09-18T04:03:36.200Z,11.50
2022-09-18T04:06:02.912Z,11.40
2022-09-18T04:08:30.116Z,11.30
2022-09-18T04:10:56.793Z,11.30
2022-09-18T04:13:23.555Z,11.20
2022-09-18T04:15:50.521Z,11.20
2022-09-18T04:18:18.239Z,11.30
2022-09-18T04:20:45.226Z,11.30
2022-09-18T04:23:14.660Z,11.40
2022-09-18T04:25:42.964Z,11.40
2022-09-18T04:28:12.956Z,11.40
2022-09-18T04:30:39.691Z,11.50
2022-09-18T04:33:08.038Z,11.50
2022-09-18T04:35:35.024Z,11.60
2022-09-18T04:38:01.696Z,11.60
2022-09-18T04:40:28.543Z,11.50
2022-09-18T04:42:55.264Z,11.50
2022-09-18T04:45:22.180Z,11.60
2022-09-18T04:47:49.351Z,11.70
2022-09-18T04:50:16.427Z,11.70
2022-09-18T04:52:44.344Z,11.70
2022-09-18T04:55:11.008Z,11.70
2022-09-18T04:57:37.661Z,11.60
2022-09-18T05:00:06.686Z,11.60
2022-09-18T05:02:33.449Z,11.70
2022-09-18T05:05:00.136Z,11.80
2022-09-18T05:07:27.654Z,11.80
2022-09-18T05:09:54.354Z,11.70
2022-09-18T05:12:21.085Z,11.60
2022-09-18T05:14:47.747Z,11.50
2022-09-18T05:17:15.032Z,11.50
2022-09-18T05:19:41.757Z,11.50
2022-09-18T05:22:08.404Z,11.50
2022-09-18T05:24:35.088Z,11.60
2022-09-18T05:27:01.804Z,11.60
2022-09-18T05:29:28.674Z,11.70
2022-09-18T05:31:55.466Z,11.80
2022-09-18T05:34:22.201Z,11.80
2022-09-18T05:36:48.892Z,11.70
2022-09-18T05:39:17.643Z,11.70
2022-09-18T05:41:44.924Z,11.70
2022-09-18T05:44:11.583Z,11.70
2022-09-18T05:46:38.306Z,11.70
2022-09-18T05:49:06.648Z,11.80
2022-09-18T05:51:33.412Z,11.90
2022-09-18T05:54:00.196Z,11.90
2022-09-18T05:56:27.973Z,12.00
2022-09-18T05:58:54.852Z,11.90
2022-09-18T06:01:21.613Z,11.90
2022-09-18T06:03:51.911Z,11.80
2022-09-18T06:06:18.675Z,11.80
2022-09-18T06:08:45.342Z,11.80
2022-09-18T06:11:12.375Z,11.80
2022-09-18T06:13:39.451Z,11.90
2022-09-18T06:16:06.153Z,12.10
2022-09-18T06:18:32.889Z,12.10
2022-09-18T06:20:59.561Z,12.10
2022-09-18T06:23:27.851Z,12.10
2022-09-18T06:26:06.036Z,12.10
2022-09-18T06:28:34.283Z,12.10
2022-09-18T06:31:02.639Z,12.20
2022-09-18T06:33:29.441Z,12.10
2022-09-18T06:35:56.425Z,12.20
2022-09-18T06:38:23.098Z,12.20
2022-09-18T06:40:51.762Z,12.30
2022-09-18T06:43:18.958Z,12.40
2022-09-18T06:45:55.119Z,12.50
2022-09-18T06:48:23.145Z,12.70
2022-09-18T06:50:58.358Z,12.80
2022-09-18T06:53:26.104Z,13.00
2022-09-18T06:55:53.071Z,13.00
2022-09-18T06:58:20.509Z,13.00
2022-09-18T07:00:47.407Z,13.10
2022-09-18T07:03:14.231Z,13.20
2022-09-18T07:05:42.783Z,13.20
2022-09-18T07:08:09.851Z,13.20
2022-09-18T07:10:37.063Z,13.30
2022-09-18T07:13:04.208Z,13.30
2022-09-18T07:15:31.319Z,13.30
2022-09-18T07:18:00.309Z,13.40
2022-09-18T07:20:27.402Z,13.40
2022-09-18T07:22:56.250Z,13.50
2022-09-18T07:25:23.336Z,13.60
2022-09-18T07:27:50.433Z,13.70
2022-09-18T07:30:18.046Z,13.80
2022-09-18T07:32:45.499Z,13.90
2022-09-18T07:35:12.694Z,14.20
2022-09-18T07:37:39.504Z,14.90
2022-09-18T07:40:08.222Z,16.10
2022-09-18T07:42:35.678Z,17.40
2022-09-18T07:45:02.390Z,19.10
2022-09-18T07:47:29.838Z,20.60
2022-09-18T07:49:56.616Z,22.00
2022-09-18T07:52:23.531Z,23.10
2022-09-18T07:54:51.540Z,23.70
2022-09-18T07:57:18.360Z,23.40
2022-09-18T07:59:45.069Z,23.40
2022-09-18T08:02:13.257Z,23.60
2022-09-18T08:04:40.100Z,24.40
2022-09-18T08:09:34.165Z,25.70
2022-09-18T08:12:01.102Z,26.50
2022-09-18T08:14:29.066Z,27.20
2022-09-18T08:16:56.134Z,27.70
2022-09-18T08:19:22.858Z,28.10
2022-09-18T08:21:49.541Z,28.40
2022-09-18T08:24:17.457Z,28.10
2022-09-18T08:26:44.890Z,28.00
2022-09-18T08:29:18.781Z,28.00
2022-09-18T08:31:48.640Z,28.60
2022-09-18T08:34:15.353Z,28.60
2022-09-18T08:36:42.057Z,28.90
2022-09-18T08:39:08.802Z,28.10
2022-09-18T08:41:50.079Z,28.20
2022-09-18T08:44:30.000Z,28.60
2022-09-18T08:47:17.713Z,29.20
2022-09-18T08:49:56.234Z,29.60
2022-09-18T08:52:28.220Z,29.20
2022-09-18T08:55:06.320Z,28.60
2022-09-18T08:57:43.468Z,28.10
2022-09-18T09:00:20.546Z,28.30
2022-09-18T09:03:13.668Z,28.20
2022-09-18T09:05:46.906Z,28.10
2022-09-18T09:08:48.664Z,28.50
2022-09-18T09:11:38.424Z,28.10
2022-09-18T09:17:27.140Z,27.10
2022-09-18T09:20:02.797Z,24.30
2022-09-18T09:22:44.750Z,23.00
2022-09-18T09:25:14.201Z,22.70
2022-09-18T09:28:07.184Z,22.90
2022-09-18T09:30:35.128Z,21.90
2022-09-18T09:33:10.788Z,20.80
2022-09-18T09:38:38.893Z,20.10
2022-09-18T09:41:40.707Z,19.60
2022-09-18T09:44:18.884Z,19.60
2022-09-18T09:47:04.438Z,19.40
2022-09-18T09:49:58.429Z,19.30
2022-09-18T09:52:29.417Z,19.90
2022-09-18T09:55:19.578Z,19.90
2022-09-18T10:00:18.754Z,20.00
2022-09-18T10:03:13.001Z,22.30
2022-09-18T10:06:09.626Z,23.10
2022-09-18T10:08:49.205Z,23.10
2022-09-18T10:11:17.193Z,23.20
2022-09-18T10:14:05.248Z,22.90
2022-09-18T10:16:40.560Z,22.80
2022-09-18T10:19:14.314Z,23.30
2022-09-18T10:21:42.591Z,23.70
2022-09-18T10:24:40.758Z,23.70
2022-09-18T10:27:15.123Z,22.90
2022-09-18T10:29:42.409Z,21.70
2022-09-18T10:32:12.726Z,20.80
2022-09-18T10:34:49.738Z,20.20
2022-09-18T10:37:28.587Z,19.80
2022-09-18T10:40:00.061Z,19.40
2022-09-18T10:42:35.319Z,19.10
2022-09-18T10:45:05.927Z,19.00
2022-09-18T10:47:35.191Z,18.90
2022-09-18T10:50:20.431Z,18.70
2022-09-18T10:52:53.957Z,18.60
2022-09-18T10:55:28.333Z,18.40
2022-09-18T10:57:54.957Z,18.30
2022-09-18T11:00:21.655Z,18.30
2022-09-18T11:02:51.082Z,18.10
2022-09-18T11:05:23.891Z,18.00
2022-09-18T11:07:56.440Z,17.80
2022-09-18T11:10:25.968Z,17.80
2022-09-18T11:12:59.125Z,17.80
2022-09-18T11:15:31.911Z,17.90
2022-09-18T11:18:03.278Z,18.00
2022-09-18T11:20:33.693Z,18.10
2022-09-18T11:23:18.667Z,18.10
2022-09-18T11:25:47.099Z,18.10
2022-09-18T11:28:29.506Z,18.00
2022-09-18T11:31:09.911Z,18.00
2022-09-18T11:33:43.884Z,18.00
2022-09-18T11:36:12.883Z,18.10
2022-09-18T11:38:45.932Z,17.90
2022-09-18T11:41:20.636Z,18.00
2022-09-18T11:44:03.948Z,18.10
2022-09-18T11:47:07.947Z,18.10
2022-09-18T11:49:55.233Z,18.10
2022-09-18T11:52:31.131Z,18.20
2022-09-18T11:55:04.012Z,18.30
2022-09-18T11:57:38.933Z,18.30
2022-09-18T12:00:13.744Z,18.30
2022-09-18T12:03:11.330Z,18.30
2022-09-18T12:05:54.763Z,18.20
2022-09-18T12:08:55.295Z,18.10
2022-09-18T12:11:36.106Z,18.00
2022-09-18T12:14:32.323Z,18.00
2022-09-18T12:17:13.017Z,18.00
2022-09-18T12:19:48.151Z,17.80
2022-09-18T12:22:59.209Z,17.70
2022-09-18T12:26:07.401Z,17.70
2022-09-18T12:29:03.021Z,17.60
2022-09-18T12:31:32.477Z,17.50
2022-09-18T12:34:17.463Z,17.40
2022-09-18T12:36:54.385Z,17.40
2022-09-18T12:39:43.280Z,17.30
2022-09-18T12:42:49.689Z,17.30
2022-09-18T12:45:30.752Z,17.30
2022-09-18T12:48:03.762Z,17.30
2022-09-18T12:50:45.481Z,17.20
2022-09-18T12:53:27.405Z,17.20
2022-09-18T12:55:56.703Z,17.20
2022-09-18T12:58:39.788Z,17.20
2022-09-18T13:01:26.985Z,17.10
2022-09-18T13:04:01.326Z,17.10
2022-09-18T13:06:41.147Z,17.10
2022-09-18T13:09:21.670Z,17.00
2022-09-18T13:11:55.184Z,17.00
2022-09-18T13:14:29.015Z,17.00
2022-09-18T13:17:12.603Z,17.00
2022-09-18T13:20:06.538Z,17.10
2022-09-18T13:22:37.870Z,17.20
2022-09-18T13:25:14.401Z,17.30
2022-09-18T13:27:41.252Z,17.30
2022-09-18T13:30:22.186Z,17.30
2022-09-18T13:32:49.127Z,17.30
2022-09-18T13:35:31.405Z,17.30
2022-09-18T13:38:08.626Z,17.30
2022-09-18T13:40:45.232Z,17.40
2022-09-18T13:43:32.984Z,17.30
2022-09-18T13:46:06.060Z,17.20
2022-09-18T13:48:45.777Z,17.10
2022-09-18T13:51:30.704Z,16.90
2022-09-18T13:54:28.092Z,16.70
2022-09-18T13:57:10.747Z,16.60
2022-09-18T14:00:08.565Z,16.70
2022-09-18T14:02:40.417Z,16.70
2022-09-18T14:05:32.207Z,16.70
2022-09-18T14:08:29.454Z,16.60
2022-09-18T14:11:17.419Z,16.50
2022-09-18T14:13:52.443Z,16.50
2022-09-18T14:16:19.297Z,16.40
2022-09-18T14:18:48.941Z,16.40
2022-09-18T14:21:18.677Z,16.30
2022-09-18T14:23:46.031Z,16.30
2022-09-18T14:26:35.965Z,16.30
2022-09-18T14:29:14.873Z,16.20
2022-09-18T14:31:44.370Z,16.10
2022-09-18T14:34:25.659Z,16.10
2022-09-18T14:36:55.507Z,16.00
2022-09-18T14:39:35.191Z,15.80
2022-09-18T14:42:24.740Z,15.80
2022-09-18T14:44:59.682Z,15.70
2022-09-18T14:47:27.571Z,15.70
2022-09-18T14:52:30.134Z,15.70
2022-09-18T14:54:59.457Z,15.70
2022-09-18T14:57:35.876Z,15.80
2022-09-18T15:00:04.066Z,15.70
2022-09-18T15:02:36.409Z,15.70
2022-09-18T15:05:11.503Z,15.60
2022-09-18T15:07:40.111Z,15.70
2022-09-18T15:10:09.222Z,15.60
2022-09-18T15:12:36.995Z,15.60
2022-09-18T15:15:30.666Z,15.60
2022-09-18T15:17:57.818Z,15.60
2022-09-18T15:20:26.708Z,15.60
2022-09-18T15:22:53.791Z,15.50
2022-09-18T15:25:26.241Z,15.50
2022-09-18T15:27:54.713Z,15.50
2022-09-18T15:30:24.488Z,15.50
2022-09-18T15:32:59.627Z,15.40
2022-09-18T15:35:30.006Z,15.40
2022-09-18T15:38:03.473Z,15.40
2022-09-18T15:40:36.659Z,15.40
2022-09-18T15:43:06.304Z,15.30
2022-09-18T15:45:35.867Z,15.10
2022-09-18T15:48:34.847Z,15.10
2022-09-18T15:51:10.011Z,15.10
2022-09-18T15:53:38.463Z,15.10
2022-09-18T15:56:09.288Z,15.00
2022-09-18T15:58:43.605Z,15.00
2022-09-18T16:01:39.870Z,14.90
2022-09-18T16:04:17.867Z,15.00
2022-09-18T16:06:59.588Z,14.90
2022-09-18T16:09:37.002Z,14.90
2022-09-18T16:12:29.452Z,14.90
2022-09-18T16:15:19.249Z,14.80
2022-09-18T16:17:45.976Z,14.70
2022-09-18T16:20:43.086Z,14.70
2022-09-18T16:23:24.082Z,14.60
2022-09-18T16:26:20.107Z,14.60
2022-09-18T16:28:52.906Z,14.60
2022-09-18T16:31:22.313Z,14.50
2022-09-18T16:34:03.769Z,14.40
2022-09-18T16:36:35.066Z,14.40
2022-09-18T16:39:07.817Z,14.40
2022-09-18T16:41:35.643Z,14.30
2022-09-18T16:44:04.405Z,14.30
2022-09-18T16:46:43.201Z,14.30
2022-09-18T16:49:12.461Z,14.30
2022-09-18T16:51:39.160Z,14.40
2022-09-18T16:54:06.096Z,14.40
2022-09-18T16:56:38.532Z,14.40
2022-09-18T16:59:06.436Z,14.40
2022-09-18T17:01:54.164Z,14.40
2022-09-18T17:04:23.103Z,14.40
2022-09-18T17:06:50.263Z,14.20
2022-09-18T17:09:17.014Z,14.00
2022-09-18T17:11:43.903Z,14.00
2022-09-18T17:14:10.788Z,14.00
2022-09-18T17:16:44.953Z,14.00
2022-09-18T17:19:12.798Z,14.00
2022-09-18T17:21:39.948Z,14.00
2022-09-18T17:24:07.120Z,14.00
2022-09-18T17:26:36.262Z,14.00
2022-09-18T17:29:03.508Z,14.10
2022-09-18T17:31:30.297Z,13.90
2022-09-18T17:33:57.354Z,13.90
2022-09-18T17:36:24.081Z,13.90
2022-09-18T17:38:50.953Z,14.00
2022-09-18T17:41:19.339Z,13.90
2022-09-18T17:43:51.734Z,14.00
2022-09-18T17:46:20.800Z,14.00
2022-09-18T17:48:47.656Z,13.90
2022-09-18T17:51:18.552Z,13.90
2022-09-18T17:53:47.999Z,13.90
2022-09-18T17:56:19.458Z,13.90
2022-09-18T17:58:46.805Z,13.90
2022-09-18T18:01:16.908Z,13.90
2022-09-18T18:03:44.104Z,13.90
2022-09-18T18:06:13.738Z,13.90
2022-09-18T18:08:40.469Z,13.80
2022-09-18T18:11:09.497Z,13.70
2022-09-18T18:13:37.623Z,13.80
2022-09-18T18:16:14.044Z,13.80
2022-09-18T18:18:42.034Z,13.80
2022-09-18T18:21:10.036Z,13.80
2022-09-18T18:23:40.188Z,13.80
2022-09-18T18:26:09.180Z,13.80
2022-09-18T18:28:37.888Z,13.90
2022-09-18T18:31:13.640Z,14.00
2022-09-18T18:33:45.032Z,13.90
2022-09-18T18:36:23.990Z,13.90
2022-09-18T18:38:53.628Z,13.90
2022-09-18T18:41:22.857Z,13.90
2022-09-18T18:43:55.542Z,13.90
2022-09-18T18:46:26.930Z,13.80
2022-09-18T18:49:01.705Z,13.80
2022-09-18T18:51:40.545Z,13.80
2022-09-18T18:54:07.303Z,13.90
2022-09-18T18:56:37.751Z,13.90
2022-09-18T18:59:07.027Z,13.90
2022-09-18T19:01:33.967Z,13.90
2022-09-18T19:04:06.472Z,13.80
2022-09-18T19:06:36.254Z,13.80
2022-09-18T19:09:07.172Z,13.80
2022-09-18T19:11:42.335Z,13.80
2022-09-18T19:14:15.208Z,13.80
2022-09-18T19:16:42.159Z,13.90
2022-09-18T19:19:10.854Z,13.90
2022-09-18T19:21:38.767Z,14.00
2022-09-18T19:24:07.776Z,14.00
2022-09-18T19:26:35.737Z,14.00
2022-09-18T19:29:08.949Z,14.10
2022-09-18T19:31:38.169Z,14.00
2022-09-18T19:34:05.115Z,14.00
2022-09-18T19:36:32.833Z,14.00
2022-09-18T19:39:04.562Z,13.90
2022-09-18T19:41:46.612Z,14.00
2022-09-18T19:44:17.799Z,13.90
2022-09-18T19:46:46.086Z,13.90
2022-09-18T19:49:19.564Z,13.80
2022-09-18T19:51:47.047Z,13.80
2022-09-18T19:54:13.701Z,13.90
2022-09-18T19:56:48.386Z,13.90
2022-09-18T19:59:16.543Z,13.90
2022-09-18T20:01:44.033Z,13.90
2022-09-18T20:04:10.822Z,13.80
2022-09-18T20:06:40.311Z,13.80
2022-09-18T20:09:07.097Z,13.80
2022-09-18T20:11:33.993Z,13.80
2022-09-18T20:14:00.824Z,13.90
2022-09-18T20:16:27.596Z,13.90
2022-09-18T20:18:54.678Z,13.90
2022-09-18T20:21:21.380Z,13.80
2022-09-18T20:23:48.356Z,13.90
2022-09-18T20:26:17.504Z,13.90
2022-09-18T20:28:44.678Z,13.90
2022-09-18T20:31:13.399Z,13.90
2022-09-18T20:33:40.512Z,13.90
2022-09-18T20:36:08.992Z,13.90
2022-09-18T20:38:39.988Z,13.90
2022-09-18T20:41:13.532Z,13.90
2022-09-18T20:43:41.875Z,13.90
2022-09-18T20:46:16.100Z,13.90
2022-09-18T20:48:45.964Z,13.90
2022-09-18T20:51:17.948Z,13.90
2022-09-18T20:53:46.400Z,14.00
2022-09-18T20:56:15.057Z,14.00
2022-09-18T20:58:42.387Z,14.00
2022-09-18T21:01:14.283Z,14.00
2022-09-18T21:03:43.571Z,13.90
2022-09-18T21:06:22.448Z,13.80
2022-09-18T21:08:53.340Z,13.70
2022-09-18T21:11:26.373Z,13.70
2022-09-18T21:13:59.084Z,13.80
2022-09-18T21:16:28.493Z,13.80
2022-09-18T21:18:57.767Z,13.80
2022-09-18T21:21:26.815Z,13.80
2022-09-18T21:23:58.541Z,13.80
2022-09-18T21:26:42.931Z,13.80
2022-09-18T21:29:09.589Z,13.80
2022-09-18T21:31:38.403Z,13.80
2022-09-18T21:34:05.457Z,13.70
2022-09-18T21:36:38.464Z,13.70
2022-09-18T21:39:08.923Z,13.70
2022-09-18T21:41:39.366Z,13.70
2022-09-18T21:44:08.876Z,13.70
2022-09-18T21:46:38.666Z,13.70
2022-09-18T21:49:07.952Z,13.80
2022-09-18T21:51:36.104Z,13.80
2022-09-18T21:54:04.345Z,13.90
2022-09-18T21:56:32.079Z,13.90
2022-09-18T21:58:59.918Z,13.90
2022-09-18T22:01:31.567Z,13.90
2022-09-18T22:04:00.921Z,13.80
2022-09-18T22:06:35.769Z,13.70
2022-09-18T22:09:15.065Z,13.70
2022-09-18T22:11:43.132Z,13.70
2022-09-18T22:14:13.398Z,13.70
2022-09-18T22:16:40.763Z,13.70
2022-09-18T22:19:10.877Z,13.60
2022-09-18T22:21:39.608Z,13.60
2022-09-18T22:24:10.153Z,13.60
2022-09-18T22:26:39.391Z,13.50
2022-09-18T22:29:08.535Z,13.50
2022-09-18T22:31:37.047Z,13.50
2022-09-18T22:34:04.136Z,13.60
2022-09-18T22:36:30.799Z,13.50
2022-09-18T22:38:57.693Z,13.50
2022-09-18T22:41:25.011Z,13.50
2022-09-18T22:43:56.046Z,13.40
2022-09-18T22:46:25.199Z,13.50
2022-09-18T22:48:52.319Z,13.50
2022-09-18T22:51:27.174Z,13.50
2022-09-18T22:53:59.807Z,13.40
2022-09-18T22:56:28.044Z,13.30
2022-09-18T22:58:56.131Z,13.30
2022-09-18T23:01:31.085Z,13.30
2022-09-18T23:03:59.265Z,13.50
2022-09-18T23:06:27.178Z,13.50
2022-09-18T23:08:55.604Z,13.50
2022-09-18T23:11:25.306Z,13.50
2022-09-18T23:13:56.837Z,13.50
2022-09-18T23:16:25.543Z,13.40
2022-09-18T23:18:54.564Z,13.40
2022-09-18T23:21:22.596Z,13.40
2022-09-18T23:23:50.168Z,13.40
2022-09-18T23:26:25.923Z,13.30
2022-09-18T23:28:54.443Z,13.20
2022-09-18T23:31:23.683Z,13.30
2022-09-18T23:33:53.351Z,13.30
2022-09-18T23:36:24.007Z,13.30
2022-09-18T23:38:55.792Z,13.30
2022-09-18T23:41:23.014Z,13.30
2022-09-18T23:43:51.579Z,13.20
2022-09-18T23:46:19.651Z,13.10
2022-09-18T23:48:54.886Z,13.10
2022-09-18T23:51:27.222Z,13.10
2022-09-18T23:53:56.797Z,13.10
2022-09-18T23:56:24.342Z,13.10
2022-09-18T23:58:56.135Z,13.00
